createdAt,value
2023-07-31T00:02:15.887Z,89.70
2023-07-31T00:04:43.060Z,89.80
2023-07-31T00:07:10.527Z,90.10
2023-07-31T00:09:38.486Z,90.20
2023-07-31T00:12:06.400Z,90.20
2023-07-31T00:14:33.876Z,90.40
2023-07-31T00:17:01.433Z,90.30
2023-07-31T00:19:29.008Z,90.20
2023-07-31T00:21:56.559Z,90.10
2023-07-31T00:24:23.630Z,89.90
2023-07-31T00:26:50.903Z,89.80
2023-07-31T00:29:18.502Z,89.70
2023-07-31T00:31:45.862Z,89.70
2023-07-31T00:34:13.376Z,89.50
2023-07-31T00:36:41.727Z,89.60
2023-07-31T00:39:09.505Z,89.30
2023-07-31T00:41:36.963Z,88.80
2023-07-31T00:44:04.715Z,88.70
2023-07-31T00:46:32.497Z,88.50
2023-07-31T00:49:03.772Z,88.20
2023-07-31T00:51:31.101Z,88.10
2023-07-31T00:53:59.689Z,88.50
2023-07-31T00:56:35.268Z,88.40
2023-07-31T00:59:10.307Z,88.50
2023-07-31T01:01:38.044Z,88.90
2023-07-31T01:04:06.074Z,89.10
2023-07-31T01:06:42.577Z,89.30
2023-07-31T01:09:20.776Z,89.60
2023-07-31T01:12:09.084Z,89.90
2023-07-31T01:14:36.763Z,90.00
2023-07-31T01:17:04.055Z,90.40
2023-07-31T01:19:31.834Z,90.60
2023-07-31T01:22:24.766Z,90.70
2023-07-31T01:25:07.994Z,90.70
2023-07-31T01:27:52.900Z,91.00
2023-07-31T01:30:26.837Z,91.30
2023-07-31T01:32:55.993Z,91.50
2023-07-31T01:35:24.916Z,91.70
2023-07-31T01:37:56.528Z,91.70
2023-07-31T01:40:25.145Z,91.80
2023-07-31T01:42:52.812Z,91.90
2023-07-31T01:45:20.599Z,91.80
2023-07-31T01:47:48.765Z,91.90
2023-07-31T01:50:16.251Z,91.80
2023-07-31T01:52:43.591Z,91.80
2023-07-31T01:55:11.333Z,91.90
2023-07-31T01:57:39.432Z,92.10
2023-07-31T02:00:09.700Z,92.30
2023-07-31T02:02:37.330Z,92.00
2023-07-31T02:05:06.096Z,91.90
2023-07-31T02:07:33.481Z,92.00
2023-07-31T02:10:01.012Z,91.80
2023-07-31T02:12:28.563Z,91.50
2023-07-31T02:17:42.285Z,90.90
2023-07-31T02:20:12.631Z,90.50
2023-07-31T02:22:40.428Z,90.30
2023-07-31T02:25:08.648Z,90.10
2023-07-31T02:27:36.488Z,89.60
2023-07-31T02:30:07.757Z,89.70
2023-07-31T02:32:35.310Z,89.70
2023-07-31T02:35:03.074Z,89.70
2023-07-31T02:37:32.964Z,89.60
2023-07-31T02:40:02.588Z,89.30
2023-07-31T02:42:33.831Z,89.30
2023-07-31T02:45:01.111Z,89.10
2023-07-31T02:47:30.321Z,89.10
2023-07-31T02:49:58.961Z,89.00
2023-07-31T02:52:26.789Z,88.90
2023-07-31T02:54:54.119Z,88.90
2023-07-31T02:57:22.116Z,89.10
2023-07-31T02:59:49.650Z,88.90
2023-07-31T03:02:17.627Z,89.30
2023-07-31T03:04:46.234Z,89.40
2023-07-31T03:07:13.642Z,89.50
2023-07-31T03:09:43.824Z,89.00
2023-07-31T03:12:11.785Z,88.70
2023-07-31T03:14:39.793Z,88.50
2023-07-31T03:17:07.721Z,88.40
2023-07-31T03:19:35.582Z,88.70
2023-07-31T03:22:02.690Z,88.80
2023-07-31T03:24:30.657Z,88.90
2023-07-31T03:27:00.899Z,88.80
2023-07-31T03:29:28.562Z,88.50
2023-07-31T03:31:56.356Z,88.10
2023-07-31T03:34:24.378Z,88.00
2023-07-31T03:36:51.756Z,88.20
2023-07-31T03:39:19.462Z,88.30
2023-07-31T03:41:46.890Z,88.10
2023-07-31T03:44:14.437Z,86.80
2023-07-31T03:46:43.844Z,86.40
2023-07-31T03:49:11.428Z,86.10
2023-07-31T03:51:39.060Z,85.30
2023-07-31T03:54:06.529Z,85.50
2023-07-31T03:56:36.212Z,85.40
2023-07-31T03:59:04.229Z,85.50
2023-07-31T04:01:34.689Z,85.60
2023-07-31T04:04:05.639Z,85.50
2023-07-31T04:06:33.190Z,85.90
2023-07-31T04:09:00.565Z,86.20
2023-07-31T04:11:27.882Z,85.70
2023-07-31T04:13:55.320Z,85.00
2023-07-31T04:16:26.539Z,84.50
2023-07-31T04:18:54.904Z,84.10
2023-07-31T04:21:22.199Z,84.00
2023-07-31T04:23:49.723Z,84.00
2023-07-31T04:26:17.877Z,83.80
2023-07-31T04:28:45.154Z,84.50
2023-07-31T04:31:12.895Z,84.10
2023-07-31T04:33:40.755Z,83.90
2023-07-31T04:36:08.351Z,83.80
2023-07-31T04:38:35.859Z,83.90
2023-07-31T04:41:03.729Z,84.30
2023-07-31T04:43:31.287Z,84.30
2023-07-31T04:45:59.436Z,84.80
2023-07-31T04:48:27.851Z,84.10
2023-07-31T04:50:55.657Z,84.20
2023-07-31T04:53:29.571Z,83.30
2023-07-31T04:55:57.285Z,82.20
2023-07-31T04:58:24.609Z,82.30
2023-07-31T05:00:52.561Z,81.40
2023-07-31T05:03:20.452Z,81.20
2023-07-31T05:05:48.027Z,81.00
2023-07-31T05:08:22.156Z,80.90
2023-07-31T05:10:54.125Z,81.00
2023-07-31T05:13:21.530Z,81.20
2023-07-31T05:15:50.965Z,80.60
2023-07-31T05:18:23.502Z,80.60
2023-07-31T05:20:52.087Z,80.60
2023-07-31T05:23:19.286Z,80.60
2023-07-31T05:25:47.661Z,80.60
2023-07-31T05:28:15.477Z,80.80
2023-07-31T05:30:43.008Z,81.30
2023-07-31T05:33:15.046Z,81.60
2023-07-31T05:35:43.082Z,81.00
2023-07-31T05:41:03.433Z,80.10
2023-07-31T05:43:31.647Z,80.10
2023-07-31T05:45:59.231Z,78.50
2023-07-31T05:48:27.104Z,77.10
2023-07-31T05:50:58.092Z,77.10
2023-07-31T05:53:28.263Z,76.60
2023-07-31T05:55:56.257Z,75.80
2023-07-31T05:58:23.776Z,74.30
2023-07-31T06:00:53.875Z,73.20
2023-07-31T06:03:21.907Z,72.40
2023-07-31T06:05:58.469Z,72.30
2023-07-31T06:08:25.983Z,70.60
2023-07-31T06:10:55.122Z,69.60
2023-07-31T06:13:23.935Z,69.20
2023-07-31T06:16:12.748Z,69.00
2023-07-31T06:18:40.501Z,66.90
2023-07-31T06:21:11.556Z,67.00
2023-07-31T06:23:49.129Z,64.50
2023-07-31T06:26:27.364Z,63.80
2023-07-31T06:29:22.698Z,63.60
2023-07-31T06:31:52.060Z,58.20
2023-07-31T06:34:19.319Z,58.60
2023-07-31T06:36:46.691Z,56.10
2023-07-31T06:39:15.055Z,52.60
2023-07-31T06:41:44.398Z,50.80
2023-07-31T06:44:12.977Z,49.90
2023-07-31T06:46:43.229Z,49.90
2023-07-31T06:49:13.942Z,48.90
2023-07-31T06:51:44.504Z,50.00
2023-07-31T06:54:17.420Z,49.60
2023-07-31T06:56:46.238Z,50.90
2023-07-31T06:59:14.915Z,52.10
2023-07-31T07:01:52.234Z,52.20
2023-07-31T07:04:46.411Z,54.00
2023-07-31T07:07:16.809Z,54.90
2023-07-31T07:10:12.595Z,55.50
2023-07-31T07:22:58.140Z,56.30
2023-07-31T07:25:25.811Z,54.10
2023-07-31T07:27:53.901Z,54.00
2023-07-31T07:30:21.271Z,55.20
2023-07-31T07:32:49.840Z,56.80
2023-07-31T07:35:17.409Z,57.70
2023-07-31T07:37:53.199Z,58.60
2023-07-31T07:40:21.576Z,57.00
2023-07-31T07:42:53.290Z,54.20
2023-07-31T07:45:27.707Z,51.60
2023-07-31T07:47:55.560Z,50.70
2023-07-31T07:50:23.851Z,51.20
2023-07-31T07:52:51.859Z,49.20
2023-07-31T07:55:19.464Z,46.80
2023-07-31T07:57:56.998Z,44.10
2023-07-31T08:00:26.003Z,44.00
2023-07-31T08:02:56.557Z,44.40
2023-07-31T08:05:51.758Z,44.60
2023-07-31T08:08:23.409Z,44.20
2023-07-31T08:10:55.200Z,43.20
2023-07-31T08:13:34.725Z,41.50
2023-07-31T08:19:32.444Z,39.50
2023-07-31T08:22:02.131Z,40.00
2023-07-31T08:24:32.160Z,41.10
2023-07-31T08:27:08.302Z,40.50
2023-07-31T08:29:39.217Z,39.40
2023-07-31T08:32:07.187Z,37.80
2023-07-31T08:34:38.108Z,36.90
2023-07-31T08:37:06.725Z,36.20
2023-07-31T08:39:37.152Z,36.60
2023-07-31T08:42:04.947Z,36.60
2023-07-31T08:44:33.556Z,36.20
2023-07-31T08:47:03.928Z,36.10
2023-07-31T08:49:32.993Z,36.10
2023-07-31T08:52:18.036Z,36.40
2023-07-31T08:54:49.144Z,35.30
2023-07-31T08:57:18.261Z,35.30
2023-07-31T08:59:58.085Z,35.70
2023-07-31T09:02:42.771Z,36.50
2023-07-31T09:05:13.753Z,36.80
2023-07-31T09:07:44.978Z,37.20
2023-07-31T09:10:13.522Z,37.70
2023-07-31T09:12:43.891Z,38.60
2023-07-31T09:15:21.040Z,39.50
2023-07-31T09:18:03.668Z,41.20
2023-07-31T09:20:33.112Z,43.00
2023-07-31T09:23:12.430Z,44.70
2023-07-31T09:25:41.536Z,46.70
2023-07-31T09:28:13.069Z,48.30
2023-07-31T09:31:21.446Z,49.80
2023-07-31T09:33:58.218Z,50.50
2023-07-31T09:36:25.487Z,51.50
2023-07-31T09:38:54.387Z,52.60
2023-07-31T09:41:30.710Z,54.30
2023-07-31T09:44:04.071Z,55.70
2023-07-31T09:46:32.215Z,59.20
2023-07-31T09:49:13.740Z,62.60
2023-07-31T09:51:44.470Z,68.70
2023-07-31T09:54:18.068Z,72.40
2023-07-31T09:56:50.806Z,74.20
2023-07-31T09:59:24.397Z,75.10
2023-07-31T10:01:54.898Z,75.80
2023-07-31T10:04:29.253Z,76.50
2023-07-31T10:06:57.180Z,77.10
2023-07-31T10:10:24.961Z,77.00
2023-07-31T10:12:58.030Z,76.80
2023-07-31T10:15:27.163Z,76.60
2023-07-31T10:17:58.916Z,76.00
2023-07-31T10:20:28.725Z,75.50
2023-07-31T10:23:00.812Z,75.20
2023-07-31T10:25:28.633Z,75.40
2023-07-31T10:27:57.488Z,75.20
2023-07-31T10:30:30.981Z,75.30
2023-07-31T10:32:59.899Z,74.70
2023-07-31T10:35:30.543Z,73.50
2023-07-31T10:38:16.577Z,72.50
2023-07-31T10:40:44.858Z,69.80
2023-07-31T10:43:28.435Z,66.20
2023-07-31T10:45:56.699Z,66.70
2023-07-31T10:48:25.439Z,68.40
2023-07-31T10:50:56.845Z,69.50
2023-07-31T10:53:28.443Z,70.10
2023-07-31T10:56:06.485Z,71.80
2023-07-31T10:58:35.003Z,73.40
2023-07-31T11:01:04.990Z,74.40
2023-07-31T11:03:50.436Z,73.70
2023-07-31T11:06:19.516Z,73.90
2023-07-31T11:08:50.557Z,71.50
2023-07-31T11:11:20.243Z,70.20
2023-07-31T11:13:54.255Z,68.20
2023-07-31T11:16:26.427Z,68.40
2023-07-31T11:18:57.453Z,66.80
2023-07-31T11:21:26.503Z,65.70
2023-07-31T11:24:01.343Z,65.00
2023-07-31T11:26:29.425Z,64.80
2023-07-31T11:28:57.035Z,64.50
2023-07-31T11:31:28.173Z,63.00
2023-07-31T11:34:07.359Z,63.00
2023-07-31T11:36:37.858Z,62.40
2023-07-31T11:39:12.467Z,61.20
2023-07-31T11:41:42.995Z,61.20
2023-07-31T11:46:58.737Z,58.70
2023-07-31T11:49:29.090Z,58.80
2023-07-31T11:51:59.837Z,58.90
2023-07-31T11:54:29.156Z,58.80
2023-07-31T11:56:59.046Z,60.30
2023-07-31T11:59:29.621Z,57.80
2023-07-31T12:01:59.748Z,58.80
2023-07-31T12:04:29.945Z,58.70
2023-07-31T12:06:58.989Z,59.60
2023-07-31T12:09:27.793Z,60.50
2023-07-31T12:11:59.510Z,59.90
2023-07-31T12:14:31.913Z,60.20
2023-07-31T12:17:05.099Z,61.20
2023-07-31T12:19:36.597Z,61.30
2023-07-31T12:22:12.916Z,60.70
2023-07-31T12:24:48.300Z,60.00
2023-07-31T12:27:20.282Z,60.70
2023-07-31T12:29:47.981Z,60.40
2023-07-31T12:32:23.537Z,59.70
2023-07-31T12:34:52.102Z,59.60
2023-07-31T12:37:19.866Z,59.50
2023-07-31T12:39:55.595Z,58.20
2023-07-31T12:42:23.440Z,58.80
2023-07-31T12:44:50.860Z,57.50
2023-07-31T12:47:24.267Z,56.90
2023-07-31T12:49:55.164Z,55.80
2023-07-31T12:52:22.544Z,55.40
2023-07-31T12:54:50.090Z,56.20
2023-07-31T12:57:25.236Z,55.90
2023-07-31T12:59:52.825Z,55.80
2023-07-31T13:02:21.501Z,55.60
2023-07-31T13:04:52.364Z,53.80
2023-07-31T13:07:23.029Z,52.90
2023-07-31T13:09:50.619Z,52.50
2023-07-31T13:12:18.745Z,52.00
2023-07-31T13:14:46.677Z,51.70
2023-07-31T13:17:55.641Z,50.90
2023-07-31T13:20:28.173Z,51.30
2023-07-31T13:22:55.633Z,50.50
2023-07-31T13:25:26.303Z,50.90
2023-07-31T13:28:05.370Z,50.70
2023-07-31T13:30:32.945Z,51.30
2023-07-31T13:33:01.148Z,51.10
2023-07-31T13:35:29.474Z,51.10
2023-07-31T13:38:00.468Z,51.00
2023-07-31T13:40:27.799Z,51.70
2023-07-31T13:42:57.108Z,51.20
2023-07-31T13:45:24.627Z,51.10
2023-07-31T13:47:52.914Z,51.50
2023-07-31T13:50:22.915Z,52.30
2023-07-31T13:52:50.425Z,53.00
2023-07-31T13:55:20.427Z,53.80
2023-07-31T13:57:50.488Z,54.60
2023-07-31T14:00:19.562Z,54.70
2023-07-31T14:02:47.308Z,55.00
2023-07-31T14:05:15.384Z,55.00
2023-07-31T14:07:43.169Z,55.20
2023-07-31T14:10:11.157Z,55.30
2023-07-31T14:12:43.419Z,54.80
2023-07-31T14:15:20.156Z,53.80
2023-07-31T14:17:51.165Z,52.50
2023-07-31T14:20:26.244Z,52.20
2023-07-31T14:22:58.540Z,51.30
2023-07-31T14:25:26.625Z,49.90
2023-07-31T14:27:56.794Z,49.30
2023-07-31T14:30:24.966Z,49.60
2023-07-31T14:33:22.369Z,48.40
2023-07-31T14:35:51.820Z,47.70
2023-07-31T14:38:20.040Z,48.60
2023-07-31T14:40:53.544Z,48.90
2023-07-31T14:43:26.354Z,49.10
2023-07-31T14:45:57.358Z,48.70
2023-07-31T14:48:25.118Z,48.80
2023-07-31T14:50:55.669Z,48.80
2023-07-31T14:53:43.932Z,49.10
2023-07-31T14:56:12.611Z,48.90
2023-07-31T14:58:44.771Z,47.90
2023-07-31T15:01:16.090Z,46.70
2023-07-31T15:03:59.712Z,45.80
2023-07-31T15:06:36.474Z,45.30
2023-07-31T15:09:19.211Z,45.50
2023-07-31T15:11:49.734Z,45.50
2023-07-31T15:14:17.767Z,45.90
2023-07-31T15:16:45.625Z,46.40
2023-07-31T15:19:23.031Z,46.80
2023-07-31T15:21:51.372Z,46.60
2023-07-31T15:24:19.620Z,46.10
2023-07-31T15:26:47.610Z,45.80
2023-07-31T15:29:26.484Z,46.00
2023-07-31T15:31:54.411Z,45.50
2023-07-31T15:34:22.273Z,45.90
2023-07-31T15:36:53.044Z,46.40
2023-07-31T15:39:26.098Z,46.30
2023-07-31T15:42:06.676Z,46.80
2023-07-31T15:44:37.158Z,47.00
2023-07-31T15:47:05.459Z,47.30
2023-07-31T15:49:32.592Z,47.20
2023-07-31T15:52:01.884Z,47.20
2023-07-31T15:54:29.139Z,47.30
2023-07-31T15:56:56.987Z,47.60
2023-07-31T15:59:24.906Z,47.70
2023-07-31T16:01:55.376Z,47.80
2023-07-31T16:04:22.827Z,48.00
2023-07-31T16:06:50.265Z,48.20
2023-07-31T16:09:38.820Z,48.30
2023-07-31T16:12:34.357Z,49.10
2023-07-31T16:15:02.784Z,51.40
2023-07-31T16:17:33.176Z,52.50
2023-07-31T16:20:01.384Z,52.70
2023-07-31T16:22:29.633Z,53.50
2023-07-31T16:25:00.097Z,53.70
2023-07-31T16:27:30.475Z,53.90
2023-07-31T16:30:01.650Z,54.00
2023-07-31T16:32:31.765Z,54.60
2023-07-31T16:34:59.633Z,55.20
2023-07-31T16:37:27.135Z,55.70
2023-07-31T16:39:54.560Z,56.30
2023-07-31T16:42:22.793Z,56.70
2023-07-31T16:44:50.778Z,56.80
2023-07-31T16:47:19.320Z,57.00
2023-07-31T16:49:51.542Z,56.80
2023-07-31T16:52:19.527Z,57.00
2023-07-31T16:54:48.022Z,57.30
2023-07-31T16:57:34.175Z,56.90
2023-07-31T17:00:01.519Z,57.10
2023-07-31T17:02:34.262Z,57.20
2023-07-31T17:05:11.087Z,57.00
2023-07-31T17:07:47.891Z,57.10
2023-07-31T17:10:15.523Z,57.00
2023-07-31T17:12:55.131Z,57.30
2023-07-31T17:15:24.395Z,57.50
2023-07-31T17:17:58.297Z,57.50
2023-07-31T17:20:28.190Z,57.80
2023-07-31T17:22:56.152Z,58.30
2023-07-31T17:25:23.245Z,58.30
2023-07-31T17:27:53.156Z,58.90
2023-07-31T17:30:21.853Z,59.10
2023-07-31T17:32:49.078Z,59.20
2023-07-31T17:35:16.910Z,59.30
2023-07-31T17:37:44.017Z,59.50
2023-07-31T17:40:11.947Z,59.90
2023-07-31T17:42:39.217Z,59.90
2023-07-31T17:45:07.398Z,60.10
2023-07-31T17:47:34.892Z,60.60
2023-07-31T17:50:02.828Z,61.10
2023-07-31T17:52:31.135Z,61.40
2023-07-31T17:54:58.834Z,61.80
2023-07-31T17:57:26.313Z,61.80
2023-07-31T17:59:54.469Z,61.80
2023-07-31T18:02:21.762Z,61.80
2023-07-31T18:04:49.636Z,61.80
2023-07-31T18:07:16.832Z,61.80
2023-07-31T18:09:46.376Z,62.10
2023-07-31T18:12:13.754Z,62.10
2023-07-31T18:14:41.597Z,62.00
2023-07-31T18:17:09.391Z,62.30
2023-07-31T18:19:36.628Z,62.70
2023-07-31T18:22:04.803Z,62.90
2023-07-31T18:24:32.194Z,62.80
2023-07-31T18:26:59.575Z,63.00
2023-07-31T18:29:27.072Z,63.20
2023-07-31T18:31:55.391Z,63.20
2023-07-31T18:34:22.943Z,63.80
2023-07-31T18:36:50.359Z,64.00
2023-07-31T18:39:17.954Z,64.00
2023-07-31T18:41:45.459Z,64.30
2023-07-31T18:44:12.735Z,64.60
2023-07-31T18:46:40.381Z,64.50
2023-07-31T18:49:08.706Z,64.60
2023-07-31T18:51:39.066Z,64.60
2023-07-31T18:54:07.532Z,64.80
2023-07-31T18:56:35.880Z,65.10
2023-07-31T18:59:03.365Z,64.90
2023-07-31T19:01:31.070Z,65.30
2023-07-31T19:04:00.050Z,65.70
2023-07-31T19:06:28.168Z,65.90
2023-07-31T19:08:55.947Z,66.10
2023-07-31T19:11:32.726Z,66.80
2023-07-31T19:14:01.250Z,66.90
2023-07-31T19:16:29.474Z,67.30
2023-07-31T19:18:57.169Z,67.40
2023-07-31T19:21:24.814Z,68.20
2023-07-31T19:23:52.188Z,69.20
2023-07-31T19:26:19.826Z,70.40
2023-07-31T19:28:49.824Z,70.70
2023-07-31T19:31:17.223Z,71.30
2023-07-31T19:33:45.044Z,72.00
2023-07-31T19:36:12.624Z,72.30
2023-07-31T19:38:39.878Z,72.50
2023-07-31T19:41:07.622Z,72.50
2023-07-31T19:43:35.351Z,72.30
2023-07-31T19:46:02.898Z,72.60
2023-07-31T19:48:30.645Z,72.50
2023-07-31T19:50:58.400Z,72.50
2023-07-31T19:53:26.413Z,72.80
2023-07-31T19:55:53.665Z,73.10
2023-07-31T19:58:20.738Z,73.80
2023-07-31T20:00:49.069Z,73.90
2023-07-31T20:03:16.733Z,74.10
2023-07-31T20:05:46.042Z,74.20
2023-07-31T20:08:13.596Z,74.20
2023-07-31T20:10:41.072Z,74.30
2023-07-31T20:13:15.911Z,74.40
2023-07-31T20:15:43.539Z,74.50
2023-07-31T20:18:11.093Z,74.80
2023-07-31T20:20:39.121Z,75.80
2023-07-31T20:23:06.410Z,75.90
2023-07-31T20:25:36.254Z,75.80
2023-07-31T20:28:04.617Z,76.20
2023-07-31T20:30:32.471Z,76.90
2023-07-31T20:33:01.846Z,77.60
2023-07-31T20:35:29.494Z,78.50
2023-07-31T20:37:56.946Z,79.10
2023-07-31T20:40:24.688Z,79.10
2023-07-31T20:43:00.947Z,80.00
2023-07-31T20:45:31.678Z,80.90
2023-07-31T20:48:00.896Z,81.30
2023-07-31T20:50:28.910Z,81.70
2023-07-31T20:52:56.403Z,82.00
2023-07-31T20:55:23.680Z,82.10
2023-07-31T20:57:52.340Z,82.30
2023-07-31T21:00:21.598Z,82.60
2023-07-31T21:02:49.141Z,83.10
2023-07-31T21:05:16.908Z,83.20
2023-07-31T21:07:47.503Z,83.50
2023-07-31T21:10:15.639Z,83.60
2023-07-31T21:12:42.844Z,83.60
2023-07-31T21:15:11.727Z,83.80
2023-07-31T21:17:39.833Z,83.80
2023-07-31T21:20:07.739Z,83.80
2023-07-31T21:22:35.300Z,83.80
2023-07-31T21:25:02.680Z,83.70
2023-07-31T21:27:31.798Z,83.60
2023-07-31T21:30:00.901Z,83.40
2023-07-31T21:32:32.026Z,83.40
2023-07-31T21:34:59.380Z,83.00
2023-07-31T21:37:26.854Z,82.80
2023-07-31T21:39:54.450Z,82.60
2023-07-31T21:42:22.072Z,82.50
2023-07-31T21:44:49.456Z,82.30
2023-07-31T21:47:18.441Z,82.40
2023-07-31T21:49:46.175Z,82.40
2023-07-31T21:52:22.148Z,82.30
2023-07-31T21:54:49.576Z,82.30
2023-07-31T21:57:17.301Z,82.30
2023-07-31T21:59:44.970Z,82.10
2023-07-31T22:02:12.193Z,82.00
2023-07-31T22:04:43.145Z,82.00
2023-07-31T22:07:10.953Z,82.10
2023-07-31T22:09:43.232Z,82.40
2023-07-31T22:12:10.974Z,82.60
2023-07-31T22:14:38.537Z,82.80
2023-07-31T22:17:06.025Z,82.80
2023-07-31T22:19:33.221Z,82.90
2023-07-31T22:22:01.831Z,82.90
2023-07-31T22:24:29.018Z,83.00
2023-07-31T22:26:57.627Z,83.30
2023-07-31T22:29:24.801Z,83.30
2023-07-31T22:31:52.110Z,83.50
2023-07-31T22:34:19.494Z,83.50
2023-07-31T22:36:46.644Z,83.70
2023-07-31T22:39:14.038Z,83.80
2023-07-31T22:41:41.461Z,83.90
2023-07-31T22:44:08.686Z,84.00
2023-07-31T22:46:36.103Z,84.00
2023-07-31T22:49:03.707Z,84.30
2023-07-31T22:51:30.844Z,84.30
2023-07-31T22:53:58.393Z,84.60
2023-07-31T22:56:25.884Z,84.60
2023-07-31T22:58:53.180Z,84.70
2023-07-31T23:01:21.665Z,84.90
2023-07-31T23:03:49.561Z,85.10
2023-07-31T23:06:18.214Z,85.40
2023-07-31T23:08:45.536Z,85.50
2023-07-31T23:11:13.054Z,85.60
2023-07-31T23:13:40.364Z,85.60
2023-07-31T23:16:08.414Z,85.60
2023-07-31T23:18:35.774Z,85.60
2023-07-31T23:21:03.500Z,85.70
2023-07-31T23:23:31.059Z,85.90
2023-07-31T23:25:58.200Z,85.90
2023-07-31T23:28:26.017Z,86.20
2023-07-31T23:30:53.405Z,86.20
2023-07-31T23:33:21.078Z,86.30
2023-07-31T23:35:48.966Z,86.50
2023-07-31T23:38:16.900Z,86.50
2023-07-31T23:40:44.045Z,86.70
2023-07-31T23:43:11.533Z,86.80
2023-07-31T23:45:41.924Z,86.90
2023-07-31T23:48:09.864Z,87.10
2023-07-31T23:50:39.447Z,87.30
2023-07-31T23:53:06.971Z,87.20
2023-07-31T23:55:39.145Z,87.20
2023-07-31T23:58:07.610Z,87.20
